Detalhes do Voo

Voltar

 DETALHES DO VÔO

Piloto: GLD1139 Jackson C. Aeronave: Carenado PC12_v1.3 Gold Distância: 305NM
Origem: SBGR Destino: SBMG Duração: 1.69
Validação: Validado Tipo: Regular Matrícula: PR-GPA
ZFW: 5765 Block Fuel/Init FOB 449/0 Combustível em Voo 449
Passageiros: 0 Carga: 0 Alternativo: SBCA
Hora da Decolagem: 2021 Velocidade de Cruzeiro: 250 Nível de Voo: 240
Regra Visual: IFR ICAO da Aeronave: PC12 Unidade de Peso: Kg
Data: 28/11/2020 Observação: GOLD ACARS Rede: VATSIM
Acidentou?: Não Comentários do Validador: Pontuação do Voo 85.8248

 ROTA

ROTA DCT SCB A428 LON DCT
REMARKS OPR/GOLD VIRTUAL AIRLINES PER/B RMK/FROM RMK/PIC GLD1139

 PENALIDADES DO VOO

Para entender como cada item é pontuado, consulte as regras de avaliação.

Nenhuma penalidade registrada para este voo.

 ANÁLISE DO POUSO

Vento durante o pouso: 341º/1 kt Proa durante o pouso: 77
V/S do Pouso: -276 ft/min IAS do Pouso: 120 kt
Força G no pouso: 0.896 G Bank no pouso: 0.09
Pitch no Pouso 1.67 Flaps no Pouso 0
Nav Lights ON Landing Lights ON
Beacon Lights OFF Strobe Lights OFF

 MAPA DO VOO

 PERFIL VERTICAL DO VOO

 EVENTOS PRINCIPAIS DO VOO

DATAEVENTOIASALTITUDE
2020-11-28 22:21:07 GOLD ACARS VERSION 1.2.4.000
2020-11-28 22:21:07 BCN LIGHTS ON00
2020-11-28 22:21:07 BOARDING02462
2020-11-28 22:21:07 STARTING ENGINE 102462
2020-11-28 22:21:07 STARTING ENGINE 202462
2020-11-28 22:21:07 STARTING ENGINE 302462
2020-11-28 22:21:08 STARTING ENGINE 402462
2020-11-28 22:22:44 TAXI LIGHTS ON02462
2020-11-28 22:24:56 STB LIGHTS ON02462
2020-11-28 22:25:00 STB LIGHTS OFF02462
2020-11-28 22:25:00 BEACON LIGHT OFF & ENGINE ON02462
2020-11-28 22:25:08 STB LIGHTS ON02462
2020-11-28 22:25:12 STB LIGHTS OFF02462
2020-11-28 22:25:19 STB LIGHTS ON02462
2020-11-28 22:25:22 STB LIGHTS OFF02462
2020-11-28 22:25:30 STB LIGHTS ON02462
2020-11-28 22:25:37 STB LIGHTS OFF02462
2020-11-28 22:25:50 TAXI TO THE RWY52462
2020-11-28 22:29:16 TAXI LIGHTS OFF22462
2020-11-28 22:29:16 TAXING WITH TAXI LIGHTS OFF22462
2020-11-28 22:29:16 LND LIGHTS ON22462
2020-11-28 22:29:17 STB LIGHTS ON22462
2020-11-28 22:29:18 BCN LIGHTS ON22462
2020-11-28 22:29:31 STB LIGHTS OFF22462
2020-11-28 22:29:55 STB LIGHTS ON02466
2020-11-28 22:29:59 STB LIGHTS OFF02466
2020-11-28 22:30:27 TAXI SPEED ABOVE 25 KTS482465
2020-11-28 22:30:45 CLIMBING1452477
2020-11-28 22:30:49 GEAR UP1522556
2020-11-28 22:30:55 AP ENGAGED1502892
2020-11-28 22:30:56 AP DISENGAGED1492928
2020-11-28 22:30:58 AP ENGAGED1463118
2020-11-28 22:35:17 LIGHTS ON ABOVE 10000 ft18910506
2020-11-28 22:35:21 LND LIGHTS OFF18810620
2020-11-28 22:46:22 CRUISE16323967
2020-11-28 22:53:47 BCN LIGHTS ON18024000
2020-11-28 22:53:47 STB LIGHTS ON18024000
2020-11-28 23:39:10 DESCEND17623995
2020-11-28 23:46:16 LND LIGHTS ON2139901
2020-11-28 23:47:59 STB LIGHTS OFF2176518
2020-11-28 23:56:21 GEAR DOWN1983640
2020-11-28 23:56:24 STB LIGHTS ON1973617
2020-11-28 23:56:33 STB LIGHTS OFF1813530
2020-11-28 23:59:23 AP DISENGAGED1272432
2020-11-29 00:00:18 LANDED - VS: -276 ft/min 1191814
2020-11-29 00:00:38 AT THE GATE281810
2020-11-29 00:00:51 STB LIGHTS ON241810
2020-11-29 00:00:53 STB LIGHTS OFF261810
2020-11-29 00:00:54 STB LIGHTS ON251810
2020-11-29 00:00:56 STB LIGHTS OFF201810
2020-11-29 00:01:01 LND LIGHTS OFF41810
2020-11-29 00:01:02 TAXI LIGHTS ON11810
2020-11-29 00:02:19 STOPPING ENGINE 101810
2020-11-29 00:02:26 NAV LIGHTS OFF01810
2020-11-29 00:02:27 TAXI LIGHTS OFF01810
2020-11-29 00:02:35 FLIGHT FINISHED01810

 DADOS DO ACARS

DATA IAS GS ALTITUDE COMBUSTÍVEL USADO OAT FASE DO VOO
2020-11-28 22:23:09 0 0 2462 0 23 BOARDING
2020-11-28 22:24:10 0 0 2462 0 23 BOARDING
2020-11-28 22:25:12 0 0 2462 1 23 BOARDING
2020-11-28 22:26:14 15 14 2461 1 23 BOARDING
2020-11-28 22:27:16 18 19 2460 1 23 TAXI TO THE RWY
2020-11-28 22:28:17 3 0 2462 2 23 TAXI TO THE RWY
2020-11-28 22:29:19 3 0 2462 2 23 TAXI TO THE RWY
2020-11-28 22:30:20 0 1 2466 3 23 TAXI TO THE RWY
2020-11-28 22:31:22 179 193 3962 8 20 TAXI TO THE RWY
2020-11-28 22:32:24 202 221 5733 12 16 CLIMBING
2020-11-28 22:33:25 200 222 7291 17 12 CLIMBING
2020-11-28 22:34:27 193 228 9062 21 8 CLIMBING
2020-11-28 22:35:28 188 230 10796 26 4 CLIMBING
2020-11-28 22:36:29 184 231 12556 30 0 CLIMBING
2020-11-28 22:37:32 179 233 14341 34 -4 CLIMBING
2020-11-28 22:38:34 174 234 16074 38 -8 CLIMBING
2020-11-28 22:39:36 177 243 17432 42 -12 CLIMBING
2020-11-28 22:40:37 174 240 18767 46 -15 CLIMBING
2020-11-28 22:41:39 178 248 19723 49 -17 CLIMBING
2020-11-28 22:42:44 176 245 20705 53 -19 CLIMBING
2020-11-28 22:43:46 173 241 21636 57 -22 CLIMBING
2020-11-28 22:44:48 169 234 22568 60 -24 CLIMBING
2020-11-28 22:45:50 164 229 23501 63 -26 CLIMBING
2020-11-28 22:46:51 171 240 24004 66 -27 CLIMBING
2020-11-28 22:47:59 180 251 24004 70 -26 CRUISE
2020-11-28 22:49:00 181 252 24001 73 -25 CRUISE
2020-11-28 22:50:02 181 256 23999 76 -25 CRUISE
2020-11-28 22:51:03 180 282 24007 80 -26 CRUISE
2020-11-28 22:52:06 180 267 24005 83 -26 CRUISE
2020-11-28 22:53:08 181 251 24006 86 -25 CRUISE
2020-11-28 22:54:14 181 256 23999 89 -25 CRUISE
2020-11-28 22:55:16 181 256 24000 93 -25 CRUISE
2020-11-28 22:56:18 181 256 24000 96 -25 CRUISE
2020-11-28 22:57:20 181 256 24000 99 -25 CRUISE
2020-11-28 22:58:21 181 256 24000 102 -25 CRUISE
2020-11-28 22:59:23 181 256 24000 105 -25 CRUISE
2020-11-28 23:00:25 181 256 24000 109 -25 CRUISE
2020-11-28 23:01:26 180 254 23999 112 -25 CRUISE
2020-11-28 23:02:28 179 253 24004 115 -26 CRUISE
2020-11-28 23:03:30 179 252 24004 118 -28 CRUISE
2020-11-28 23:04:31 179 252 24004 121 -30 CRUISE
2020-11-28 23:05:33 180 251 23999 124 -32 CRUISE
2020-11-28 23:06:35 179 250 23999 127 -32 CRUISE
2020-11-28 23:07:37 179 250 23999 130 -32 CRUISE
2020-11-28 23:08:40 179 250 24000 134 -32 CRUISE
2020-11-28 23:09:43 179 250 24000 137 -32 CRUISE
2020-11-28 23:10:45 179 251 24000 140 -32 CRUISE
2020-11-28 23:11:46 179 252 23999 143 -32 CRUISE
2020-11-28 23:12:48 179 252 23999 146 -32 CRUISE
2020-11-28 23:13:50 172 253 23995 149 -32 CRUISE
2020-11-28 23:14:51 178 261 24000 152 -32 CRUISE
2020-11-28 23:15:52 179 262 24000 155 -32 CRUISE
2020-11-28 23:16:54 179 263 24000 158 -32 CRUISE
2020-11-28 23:17:56 179 263 24000 162 -32 CRUISE
2020-11-28 23:19:01 179 263 24000 165 -32 CRUISE
2020-11-28 23:20:04 179 263 24000 168 -32 CRUISE
2020-11-28 23:21:05 179 263 23996 171 -31 CRUISE
2020-11-28 23:22:06 178 262 23996 174 -29 CRUISE
2020-11-28 23:23:08 177 263 23996 177 -27 CRUISE
2020-11-28 23:24:09 177 264 23999 180 -25 CRUISE
2020-11-28 23:25:11 177 264 24000 183 -25 CRUISE
2020-11-28 23:26:13 177 264 24000 186 -25 CRUISE
2020-11-28 23:31:15 177 263 24000 201 -25 CRUISE
2020-11-28 23:31:15 177 263 24000 201 -25 CRUISE
2020-11-28 23:31:15 177 263 24000 201 -25 CRUISE
2020-11-28 23:31:15 177 263 24000 201 -25 CRUISE
2020-11-28 23:31:15 177 263 24000 201 -25 CRUISE
2020-11-28 23:32:16 177 263 24000 204 -25 CRUISE
2020-11-28 23:33:17 177 264 24000 207 -25 CRUISE
2020-11-28 23:34:21 177 264 24000 210 -25 CRUISE
2020-11-28 23:35:22 177 264 24000 213 -25 CRUISE
2020-11-28 23:36:24 176 264 24000 216 -25 CRUISE
2020-11-28 23:37:25 176 267 24000 219 -25 CRUISE
2020-11-28 23:38:26 176 271 24000 222 -25 CRUISE
2020-11-28 23:39:27 178 272 23461 225 -23 CRUISE
2020-11-28 23:40:28 168 251 21426 226 -18 DESCEND
2020-11-28 23:41:30 166 240 19358 227 -13 DESCEND
2020-11-28 23:42:31 168 233 17341 228 -8 DESCEND
2020-11-28 23:43:32 171 228 15331 229 -4 DESCEND
2020-11-28 23:44:33 208 264 13336 231 0 DESCEND
2020-11-28 23:45:34 217 264 11328 234 4 DESCEND
2020-11-28 23:46:34 214 252 9284 237 9 DESCEND
2020-11-28 23:47:35 217 247 7297 240 14 DESCEND
2020-11-28 23:48:36 220 243 5269 242 18 DESCEND
2020-11-28 23:49:37 232 255 5000 247 19 DESCEND
2020-11-28 23:50:38 232 255 4999 251 19 DESCEND
2020-11-28 23:51:39 221 243 4998 256 19 DESCEND
2020-11-28 23:52:39 215 237 4999 259 19 DESCEND
2020-11-28 23:53:40 198 218 4999 262 19 DESCEND
2020-11-28 23:54:41 184 206 4930 265 19 DESCEND
2020-11-28 23:55:42 127 144 3787 265 22 DESCEND
2020-11-28 23:56:43 162 173 3418 268 23 DESCEND
2020-11-28 23:57:44 142 153 3305 270 23 DESCEND
2020-11-28 23:58:45 131 140 2892 272 24 DESCEND
2020-11-28 23:59:45 143 152 2346 274 25 DESCEND
2020-11-29 00:00:46 15 19 1810 274 26 DESCEND
2020-11-29 00:01:47 29 28 1810 275 26 AT THE GATE